Time;durP1;ratioP1;P1;durP2;ratioP2;P2;SDS_P1;SDS_P2;PMS_P1;PMS_P2;Temp;Humidity;BMP_temperature;BMP_pressure;BME280_temperature;BME280_humidity;BME280_pressure;Samples;Min_cycle;Max_cycle;Signal;HPM_P1;HPM_P2
2022/11/07 00:01:51;;;;;;;0.10;0.10;;;;;;;10.67;65.25;97769.00;8414089;28;20393;-72
2022/11/07 00:05:55;;;;;;;0.10;0.10;;;;;;;10.50;65.39;97764.63;8413658;28;20235;-72
2022/11/07 00:09:58;;;;;;;0.10;0.10;;;;;;;10.43;65.52;97771.00;8413412;28;20238;-72
2022/11/07 00:14:01;;;;;;;0.10;0.10;;;;;;;10.69;65.26;97774.94;8414191;28;20316;-72
2022/11/07 00:18:03;;;;;;;0.10;0.10;;;;;;;10.71;64.77;97774.88;8413804;28;20230;-72
2022/11/07 00:22:07;;;;;;;0.10;0.10;;;;;;;10.50;65.38;97772.41;8413529;28;20234;-72
2022/11/07 00:26:12;;;;;;;0.10;0.10;;;;;;;10.80;64.96;97787.41;8413591;28;20230;-72
2022/11/07 00:30:14;;;;;;;0.10;0.10;;;;;;;10.79;64.93;97792.66;8413725;28;20238;-72
2022/11/07 00:34:18;;;;;;;0.10;0.10;;;;;;;10.74;65.33;97788.53;8413350;28;20288;-72
2022/11/07 00:38:22;;;;;;;0.10;0.10;;;;;;;10.78;65.07;97797.00;8413083;28;20234;-72
2022/11/07 00:42:24;;;;;;;0.10;0.10;;;;;;;10.80;65.10;97797.75;8412330;28;20234;-73
2022/11/07 00:46:27;;;;;;;0.10;0.10;;;;;;;10.91;65.35;97802.44;8413324;28;20296;-73
2022/11/07 00:50:30;;;;;;;0.10;0.10;;;;;;;11.00;64.84;97807.16;8412754;28;20230;-73
2022/11/07 00:54:35;;;;;;;0.10;0.10;;;;;;;10.98;65.28;97811.56;8412681;28;20235;-72
2022/11/07 00:58:38;;;;;;;0.10;0.10;;;;;;;11.02;64.93;97818.28;8412333;28;20382;-73
2022/11/07 01:02:41;;;;;;;0.10;0.10;;;;;;;11.04;65.03;97818.19;8412371;28;20363;-72
2022/11/07 01:06:45;;;;;;;0.10;0.10;;;;;;;10.91;65.26;97816.22;8412329;28;20237;-73
2022/11/07 01:10:49;;;;;;;0.10;0.10;;;;;;;11.00;64.65;97819.28;8412326;28;20417;-73
2022/11/07 01:14:52;;;;;;;0.10;0.10;;;;;;;11.03;64.91;97821.72;8412398;28;20242;-73
2022/11/07 01:18:55;;;;;;;0.10;0.10;;;;;;;11.02;64.42;97827.81;8411572;28;20227;-73
2022/11/07 01:22:58;;;;;;;0.10;0.10;;;;;;;11.13;63.99;97825.53;8411868;28;20227;-73
2022/11/07 01:27:02;;;;;;;0.10;0.10;;;;;;;11.13;63.66;97828.13;8412154;28;20515;-73
2022/11/07 01:31:06;;;;;;;0.10;0.10;;;;;;;11.13;63.59;97834.13;8412167;28;20230;-73
2022/11/07 01:35:09;;;;;;;0.10;0.10;;;;;;;11.24;63.43;97831.03;8411773;28;20237;-73
2022/11/07 01:39:12;;;;;;;0.10;0.10;;;;;;;11.27;63.02;97835.22;8411921;28;20649;-73
2022/11/07 01:43:16;;;;;;;0.10;0.10;;;;;;;11.20;61.48;97829.50;8411772;28;20231;-73
2022/11/07 01:47:19;;;;;;;0.10;0.10;;;;;;;11.25;61.49;97831.88;8411783;28;20227;-73
2022/11/07 01:51:22;;;;;;;0.10;0.10;;;;;;;11.32;61.25;97836.66;8411753;28;20234;-73
2022/11/07 01:55:27;;;;;;;0.10;0.10;;;;;;;11.30;61.44;97833.31;8416709;28;20231;-73
2022/11/07 01:59:32;;;;;;;0.10;0.10;;;;;;;11.36;61.36;97834.78;8417635;28;20238;-73
2022/11/07 02:03:35;;;;;;;0.10;0.10;;;;;;;11.39;61.04;97839.81;8417524;28;20267;-73
2022/11/07 02:07:38;;;;;;;0.10;0.10;;;;;;;11.49;61.08;97835.84;8417468;28;20250;-72
2022/11/07 02:11:41;;;;;;;0.10;0.10;;;;;;;11.46;61.34;97835.16;8417596;28;20459;-73
2022/11/07 02:15:45;;;;;;;0.10;0.10;;;;;;;11.55;61.71;97832.09;8417297;28;20230;-73
2022/11/07 02:19:49;;;;;;;0.10;0.10;;;;;;;11.53;61.68;97832.16;8417052;28;20303;-73
2022/11/07 02:23:56;;;;;;;0.10;0.10;;;;;;;11.61;61.05;97831.78;8416189;28;20230;-73
2022/11/07 02:28:04;;;;;;;0.10;0.10;;;;;;;11.63;61.19;97837.75;8416847;28;20234;-73
2022/11/07 02:32:08;;;;;;;0.10;0.10;;;;;;;11.65;61.71;97837.66;8416625;28;20231;-73
2022/11/07 02:36:15;;;;;;;0.10;0.10;;;;;;;11.66;62.00;97834.16;8416485;28;20274;-73
2022/11/07 02:40:18;;;;;;;0.10;0.10;;;;;;;11.61;61.39;97826.59;8416404;28;20231;-72
2022/11/07 02:44:22;;;;;;;0.10;0.10;;;;;;;11.65;61.85;97835.06;8416148;28;20243;-72
2022/11/07 02:48:28;;;;;;;0.10;0.10;;;;;;;11.64;61.98;97834.22;8416118;28;20222;-72
2022/11/07 02:52:31;;;;;;;0.10;0.10;;;;;;;11.68;61.87;97829.72;8415935;28;20510;-73
2022/11/07 02:56:34;;;;;;;0.10;0.10;;;;;;;11.63;61.75;97831.72;8415975;28;20231;-73
2022/11/07 03:00:38;;;;;;;0.10;0.10;;;;;;;11.56;62.00;97826.00;8415830;28;20235;-73
2022/11/07 03:04:41;;;;;;;0.10;0.10;;;;;;;11.55;62.06;97826.91;8414611;28;20243;-73
2022/11/07 03:08:51;;;;;;;0.10;0.10;;;;;;;11.70;61.88;97826.13;8415641;28;20231;-73
2022/11/07 03:12:54;;;;;;;0.10;0.10;;;;;;;11.45;63.50;97829.13;8415100;28;20226;-72
2022/11/07 03:16:58;;;;;;;0.10;0.10;;;;;;;11.26;63.80;97828.38;8415427;28;20235;-73
2022/11/07 03:21:01;;;;;;;0.10;0.10;;;;;;;11.23;64.19;97821.59;8415320;28;20233;-73
2022/11/07 03:25:04;;;;;;;0.10;0.10;;;;;;;11.34;63.71;97829.66;8415064;28;20541;-73
2022/11/07 03:29:07;;;;;;;0.10;0.10;;;;;;;11.26;64.15;97825.78;8414894;28;20227;-72
2022/11/07 03:33:11;;;;;;;0.10;0.10;;;;;;;11.30;63.74;97824.72;8415174;28;20576;-73
2022/11/07 03:37:15;;;;;;;0.10;0.10;;;;;;;11.35;63.66;97823.56;8414928;28;20237;-72
2022/11/07 03:41:17;;;;;;;0.10;0.10;;;;;;;11.41;63.58;97835.38;8414637;28;20238;-72
2022/11/07 03:45:20;;;;;;;0.10;0.10;;;;;;;11.49;63.72;97833.25;8414389;28;20284;-72
2022/11/07 03:49:24;;;;;;;0.10;0.10;;;;;;;11.51;63.23;97835.75;8414252;28;20231;-73
2022/11/07 03:53:27;;;;;;;0.10;0.10;;;;;;;11.66;63.08;97841.94;8414104;28;20464;-72
2022/11/07 03:57:30;;;;;;;0.10;0.10;;;;;;;11.57;63.83;97847.59;8414200;28;20243;-72
2022/11/07 04:01:33;;;;;;;0.10;0.10;;;;;;;11.37;64.34;97852.03;8414465;28;20230;-72
2022/11/07 04:05:37;;;;;;;0.10;0.10;;;;;;;11.49;64.26;97856.59;8414892;28;20246;-74
2022/11/07 04:09:39;;;;;;;0.10;0.10;;;;;;;11.22;65.67;97857.97;8414483;28;20235;-73
2022/11/07 04:18:03;;;;;;;0.10;0.10;;;;;;;11.67;64.16;97869.53;8414212;28;20425;-73
2022/11/07 04:22:07;;;;;;;0.10;0.10;;;;;;;11.63;64.74;97866.28;8414242;28;20276;-72
2022/11/07 04:30:30;;;;;;;0.10;0.10;;;;;;;11.72;64.44;97875.34;8414274;28;20231;-72
2022/11/07 04:34:33;;;;;;;0.10;0.10;;;;;;;11.68;64.92;97868.63;8414004;28;20223;-72
2022/11/07 04:38:37;;;;;;;0.10;0.10;;;;;;;11.64;65.11;97872.31;8414014;28;20231;-74
2022/11/07 04:42:40;;;;;;;0.10;0.10;;;;;;;11.68;65.13;97871.22;8413850;28;20241;-73
2022/11/07 04:46:43;;;;;;;0.10;0.10;;;;;;;11.70;65.06;97877.19;8413900;28;20284;-73
2022/11/07 04:50:46;;;;;;;0.10;0.10;;;;;;;11.72;65.05;97889.16;8413623;28;20227;-72
2022/11/07 04:54:50;;;;;;;0.10;0.10;;;;;;;11.62;65.32;97889.72;8413322;28;20284;-72
2022/11/07 04:58:52;;;;;;;0.10;0.10;;;;;;;11.65;64.97;97897.31;8413248;28;20246;-73
2022/11/07 05:02:55;;;;;;;0.10;0.10;;;;;;;11.77;65.01;97904.50;8413385;28;20298;-73
2022/11/07 05:06:58;;;;;;;0.10;0.10;;;;;;;11.66;65.57;97905.03;8413532;28;20414;-73
2022/11/07 05:11:02;;;;;;;0.10;0.10;;;;;;;11.64;65.66;97911.22;8413260;28;20260;-72
2022/11/07 05:15:06;;;;;;;0.10;0.10;;;;;;;11.68;65.35;97898.00;8413619;28;20230;-72
2022/11/07 05:19:12;;;;;;;0.10;0.10;;;;;;;11.77;65.07;97904.50;8413329;28;20230;-72
2022/11/07 05:23:16;;;;;;;0.10;0.10;;;;;;;11.77;64.99;97907.09;8413575;28;20247;-72
2022/11/07 05:27:22;;;;;;;0.10;0.10;;;;;;;11.78;65.13;97915.72;8413535;28;20232;-70
2022/11/07 05:31:25;;;;;;;0.10;0.10;;;;;;;11.92;64.86;97921.09;8419882;28;20291;-72
2022/11/07 05:35:27;;;;;;;0.10;0.10;;;;;;;11.97;64.69;97916.47;8419768;28;20245;-73
2022/11/07 05:39:30;;;;;;;0.10;0.10;;;;;;;11.92;64.86;97916.72;8419370;28;20518;-73
2022/11/07 05:43:35;;;;;;;0.10;0.10;;;;;;;11.96;65.21;97916.59;8419412;28;20541;-73
2022/11/07 05:47:37;;;;;;;0.10;0.10;;;;;;;11.97;64.91;97918.25;8419215;28;20471;-72
2022/11/07 05:51:42;;;;;;;0.10;0.10;;;;;;;11.93;65.75;97915.78;8419044;28;20530;-73
2022/11/07 05:55:44;;;;;;;0.10;0.10;;;;;;;11.91;65.51;97922.81;8418890;28;20259;-72
2022/11/07 05:59:49;;;;;;;0.10;0.10;;;;;;;11.94;65.87;97932.22;8418459;28;20292;-73
2022/11/07 06:03:51;;;;;;;0.10;0.10;;;;;;;12.01;65.23;97923.19;8418564;28;20230;-73
2022/11/07 06:07:54;;;;;;;0.10;0.10;;;;;;;12.05;65.29;97931.66;8417772;28;20235;-74
2022/11/07 06:11:57;;;;;;;0.10;0.10;;;;;;;11.91;65.70;97938.41;8418359;28;20246;-73
2022/11/07 06:16:01;;;;;;;0.10;0.10;;;;;;;12.04;65.63;97943.81;8418282;28;20234;-74
2022/11/07 06:20:04;;;;;;;0.10;0.10;;;;;;;12.13;65.56;97951.13;8417603;28;20511;-73
2022/11/07 06:24:10;;;;;;;0.10;0.10;;;;;;;11.98;65.58;97946.72;8417690;28;20234;-73
2022/11/07 06:28:17;;;;;;;0.10;0.10;;;;;;;11.92;66.23;97947.88;8417734;28;20471;-73
2022/11/07 06:32:21;;;;;;;0.10;0.10;;;;;;;12.12;65.44;97953.81;8417413;28;20238;-73
2022/11/07 06:36:23;;;;;;;0.10;0.10;;;;;;;12.15;65.14;97953.66;8417429;28;20234;-73
2022/11/07 06:40:26;;;;;;;0.10;0.10;;;;;;;11.95;65.85;97948.63;8417129;28;20226;-74
2022/11/07 06:44:29;;;;;;;0.10;0.10;;;;;;;11.97;65.61;97954.59;8417271;28;20248;-73
2022/11/07 06:48:33;;;;;;;0.10;0.10;;;;;;;12.01;65.56;97956.94;8417160;28;20271;-73
2022/11/07 06:52:36;;;;;;;0.10;0.10;;;;;;;12.17;65.00;97961.38;8417116;28;20230;-73
2022/11/07 06:56:39;;;;;;;0.10;0.10;;;;;;;12.23;64.68;97977.47;8417054;28;20249;-73
2022/11/07 07:00:42;;;;;;;0.10;0.10;;;;;;;12.26;65.05;97973.88;8416815;28;20231;-73
2022/11/07 07:04:47;;;;;;;0.10;0.10;;;;;;;12.24;65.01;97983.50;8416597;28;20426;-73
2022/11/07 07:08:50;;;;;;;0.10;0.10;;;;;;;12.30;65.07;97980.59;8416544;28;20238;-73
2022/11/07 07:12:53;;;;;;;0.10;0.10;;;;;;;12.35;64.32;97980.34;8415898;28;20254;-74
2022/11/07 07:16:57;;;;;;;0.10;0.10;;;;;;;12.43;64.25;97976.47;8416376;28;20254;-73
2022/11/07 07:21:06;;;;;;;0.10;0.10;;;;;;;12.35;64.45;97986.38;8415872;28;20234;-74
2022/11/07 07:25:10;;;;;;;0.10;0.10;;;;;;;12.36;64.64;97988.06;8415957;28;20285;-73
2022/11/07 07:29:13;;;;;;;0.10;0.10;;;;;;;12.54;64.14;97990.63;8415883;28;20233;-73
2022/11/07 07:33:15;;;;;;;0.10;0.10;;;;;;;12.83;63.02;97989.97;8415740;28;20552;-73
2022/11/07 07:37:20;;;;;;;0.07;0.07;;;;;;;12.78;62.72;97989.34;8415505;28;20506;-73
2022/11/07 07:41:23;;;;;;;0.10;0.10;;;;;;;13.15;61.01;97995.16;8415381;28;20229;-73
2022/11/07 07:45:25;;;;;;;0.10;0.10;;;;;;;13.92;59.93;97993.53;8415152;28;20242;-73
2022/11/07 07:49:28;;;;;;;0.10;0.10;;;;;;;14.52;58.00;97992.63;8415167;28;20542;-73
2022/11/07 07:53:32;;;;;;;0.10;0.10;;;;;;;14.83;57.67;97989.03;8414646;28;20230;-73
2022/11/07 07:57:38;;;;;;;0.10;0.10;;;;;;;15.23;55.76;97993.53;8414852;28;20243;-74
2022/11/07 08:01:41;;;;;;;0.10;0.10;;;;;;;15.57;54.91;97996.59;8414791;28;20230;-73
2022/11/07 08:05:44;;;;;;;0.00;0.00;;;;;;;15.39;54.88;97989.03;8414544;28;20235;-73
2022/11/07 08:09:49;;;;;;;0.10;0.10;;;;;;;15.85;53.49;97995.69;8414671;28;20445;-73
2022/11/07 08:13:51;;;;;;;0.10;0.10;;;;;;;16.38;51.93;97996.50;8414386;28;20237;-73
2022/11/07 08:18:03;;;;;;;0.00;0.00;;;;;;;16.79;51.49;97994.63;8414170;28;20429;-73
2022/11/07 08:22:06;;;;;;;0.00;0.00;;;;;;;17.22;49.78;97990.81;8414422;28;20227;-74
2022/11/07 08:26:10;;;;;;;0.10;0.10;;;;;;;16.74;50.41;97989.72;8414229;28;20239;-74
2022/11/07 08:30:14;;;;;;;0.00;0.00;;;;;;;17.37;48.79;98000.19;8414186;28;20238;-73
2022/11/07 08:34:19;;;;;;;0.00;0.00;;;;;;;17.54;48.46;97997.19;8413975;28;20423;-74
2022/11/07 08:38:23;;;;;;;0.00;0.00;;;;;;;17.50;48.72;98000.16;8414103;28;20227;-74
2022/11/07 08:42:27;;;;;;;0.10;0.10;;;;;;;18.09;47.69;98002.81;8413882;28;20233;-74
2022/11/07 08:46:29;;;;;;;0.00;0.00;;;;;;;18.23;47.32;97998.31;8413832;28;20242;-74
2022/11/07 08:50:32;;;;;;;0.00;0.00;;;;;;;18.20;47.02;98002.03;8413996;28;20231;-74
2022/11/07 08:54:35;;;;;;;0.00;0.00;;;;;;;18.14;53.46;97999.84;8413839;28;20291;-74
2022/11/07 08:58:39;;;;;;;0.00;0.00;;;;;;;17.23;49.99;97995.94;8413658;28;20231;-73
2022/11/07 09:02:42;;;;;;;0.00;0.00;;;;;;;18.14;49.79;97998.06;8414700;28;20232;-73
2022/11/07 09:07:05;;;;;;;0.00;0.00;;;;;;;18.02;50.87;97996.34;8420085;28;20317;-72
2022/11/07 09:11:08;;;;;;;0.00;0.00;;;;;;;18.16;48.23;97996.19;8420333;28;20434;-73
2022/11/07 09:15:12;;;;;;;0.00;0.00;;;;;;;18.42;47.22;97992.53;8420307;28;20294;-73
2022/11/07 09:19:15;;;;;;;0.00;0.00;;;;;;;18.33;47.52;98000.16;8420307;28;20433;-72
2022/11/07 09:23:18;;;;;;;0.00;0.00;;;;;;;18.78;46.82;98004.59;8420192;28;20253;-73
2022/11/07 09:27:21;;;;;;;0.00;0.00;;;;;;;18.92;45.88;98001.78;8419948;28;20298;-73
2022/11/07 09:31:26;;;;;;;0.00;0.00;;;;;;;19.31;45.53;97998.78;8419939;28;20542;-73
2022/11/07 09:35:29;;;;;;;0.00;0.00;;;;;;;19.60;44.87;98003.47;8419779;28;20235;-73
2022/11/07 09:39:32;;;;;;;0.00;0.00;;;;;;;19.72;44.39;97999.88;8419396;28;20458;-73
2022/11/07 09:43:58;;;;;;;0.00;0.00;;;;;;;19.47;44.70;98006.25;8419386;28;20233;-74
2022/11/07 09:48:05;;;;;;;0.00;0.00;;;;;;;19.70;44.49;98004.38;8418816;28;20233;-72
2022/11/07 09:52:18;;;;;;;0.00;0.00;;;;;;;19.80;44.20;98007.97;8418937;28;20224;-73
2022/11/07 09:56:21;;;;;;;0.00;0.00;;;;;;;19.63;44.44;98013.72;8417027;28;20485;-73
2022/11/07 10:00:24;;;;;;;0.00;0.00;;;;;;;19.67;44.94;98015.16;8416529;28;20232;-73
2022/11/07 10:04:28;;;;;;;0.00;0.00;;;;;;;19.49;44.96;98009.56;8416379;28;20309;-74
2022/11/07 10:08:38;;;;;;;0.00;0.00;;;;;;;19.66;45.18;98010.84;8416443;28;20513;-73
2022/11/07 10:12:58;;;;;;;0.00;0.00;;;;;;;19.41;45.01;98002.31;8416194;28;20253;-73
2022/11/07 10:17:08;;;;;;;0.00;0.00;;;;;;;19.66;44.95;98014.31;8415302;28;20250;-73
2022/11/07 10:21:23;;;;;;;0.00;0.00;;;;;;;19.18;46.49;98012.03;8415644;28;20233;-73
2022/11/07 10:25:42;;;;;;;0.00;0.00;;;;;;;18.66;47.24;98010.81;8415907;28;20410;-73
2022/11/07 10:29:49;;;;;;;0.00;0.00;;;;;;;18.29;48.07;98017.03;8415485;28;20238;-73
2022/11/07 10:33:55;;;;;;;0.00;0.00;;;;;;;18.36;48.87;98015.63;8414814;28;20233;-73
2022/11/07 10:38:01;;;;;;;0.00;0.00;;;;;;;18.13;49.50;98001.63;8414869;28;20239;-73
2022/11/07 10:42:07;;;;;;;0.00;0.00;;;;;;;17.96;49.83;98000.25;8414761;28;20309;-73
2022/11/07 10:46:15;;;;;;;0.00;0.00;;;;;;;19.05;47.70;98006.06;8414479;28;20233;-73
2022/11/07 10:50:19;;;;;;;0.00;0.00;;;;;;;19.11;46.68;97998.56;8414146;28;20519;-73
2022/11/07 10:54:28;;;;;;;0.00;0.00;;;;;;;19.12;47.03;97989.72;8414364;28;20512;-72
2022/11/07 10:58:35;;;;;;;0.00;0.00;;;;;;;18.73;47.53;98004.13;8414400;28;20246;-73
2022/11/07 11:02:45;;;;;;;0.00;0.00;;;;;;;18.40;48.73;97997.88;8413854;28;20233;-73
2022/11/07 11:06:57;;;;;;;0.00;0.00;;;;;;;18.04;49.13;97996.25;8413730;28;20251;-73
2022/11/07 11:11:01;;;;;;;0.00;0.00;;;;;;;17.88;48.52;97992.16;8413424;28;20224;-73
2022/11/07 11:15:11;;;;;;;0.00;0.00;;;;;;;18.11;47.98;97982.56;8414720;28;20240;-73
2022/11/07 11:19:20;;;;;;;0.00;0.00;;;;;;;18.00;48.63;97971.22;8414816;28;20250;-73
2022/11/07 11:23:25;;;;;;;0.00;0.00;;;;;;;18.20;47.98;97959.22;8414710;28;20232;-73
2022/11/07 11:27:31;;;;;;;0.00;0.00;;;;;;;17.89;48.04;97956.31;8413276;28;20246;-73
2022/11/07 11:31:36;;;;;;;0.00;0.00;;;;;;;18.17;47.37;97961.13;8414080;28;20437;-73
2022/11/07 11:35:43;;;;;;;0.00;0.00;;;;;;;18.28;47.90;97947.22;8414200;28;20226;-73
2022/11/07 11:39:49;;;;;;;0.00;0.00;;;;;;;18.43;47.34;97957.47;8413700;28;20425;-73
2022/11/07 11:43:56;;;;;;;0.00;0.00;;;;;;;18.11;47.30;97938.03;8413117;28;20258;-73
2022/11/07 11:48:01;;;;;;;0.00;0.00;;;;;;;18.05;47.02;97943.72;8412946;28;20241;-74
2022/11/07 11:52:07;;;;;;;0.00;0.00;;;;;;;17.80;47.21;97944.72;8413261;28;20242;-74
2022/11/07 11:56:22;;;;;;;0.00;0.00;;;;;;;17.49;47.15;97940.88;8413169;28;20300;-74
2022/11/07 12:00:27;;;;;;;0.00;0.00;;;;;;;17.73;47.85;97944.31;8413304;28;20232;-74
2022/11/07 12:04:38;;;;;;;0.00;0.00;;;;;;;17.60;47.98;97951.41;8413067;28;20263;-73
2022/11/07 12:08:55;;;;;;;0.00;0.00;;;;;;;17.28;46.96;97956.34;8418495;28;20242;-73
2022/11/07 12:13:08;;;;;;;0.00;0.00;;;;;;;17.62;47.50;97946.06;8414722;28;20227;-72
2022/11/07 12:17:18;;;;;;;0.00;0.00;;;;;;;17.78;47.04;97954.44;8412483;28;20550;-73
2022/11/07 12:21:30;;;;;;;0.00;0.00;;;;;;;17.86;46.72;97949.50;8412732;28;20315;-73
2022/11/07 12:25:37;;;;;;;0.00;0.00;;;;;;;17.55;46.76;97945.66;8412618;28;20291;-73
2022/11/07 12:29:54;;;;;;;0.00;0.00;;;;;;;17.43;46.56;97939.53;8412397;28;20308;-72
2022/11/07 12:34:05;;;;;;;0.00;0.00;;;;;;;17.23;47.03;97941.00;8411833;28;20297;-73
2022/11/07 12:38:47;;;;;;;0.00;0.00;;;;;;;17.03;47.51;97936.34;8412456;28;20251;-73
2022/11/07 12:42:57;;;;;;;0.00;0.00;;;;;;;17.15;48.19;97933.69;8381198;28;20255;-72
2022/11/07 12:47:04;;;;;;;0.00;0.00;;;;;;;17.16;48.17;97943.19;8410838;28;20302;-73
2022/11/07 12:51:15;;;;;;;0.00;0.00;;;;;;;17.17;48.69;97944.03;8411477;28;20526;-73
2022/11/07 12:55:21;;;;;;;0.00;0.00;;;;;;;17.38;47.57;97924.19;8411552;28;20234;-73
2022/11/07 12:59:26;;;;;;;0.00;0.00;;;;;;;17.86;47.22;97927.69;8411777;28;20413;-73
2022/11/07 13:03:37;;;;;;;0.00;0.00;;;;;;;17.66;47.93;97931.78;8411069;28;20242;-73
2022/11/07 13:07:46;;;;;;;0.00;0.00;;;;;;;17.38;48.16;97932.03;8410521;28;20230;-73
2022/11/07 13:11:54;;;;;;;0.00;0.00;;;;;;;17.45;48.75;97934.19;8410882;28;20252;-72
2022/11/07 13:16:05;;;;;;;0.00;0.00;;;;;;;17.25;49.02;97933.88;8410192;28;20230;-73
2022/11/07 13:20:29;;;;;;;0.00;0.00;;;;;;;16.99;50.32;97941.78;8410387;28;20234;-72
2022/11/07 13:24:36;;;;;;;0.10;0.10;;;;;;;16.68;50.94;97960.53;8410958;28;20235;-72
2022/11/07 13:28:40;;;;;;;0.10;0.10;;;;;;;16.16;56.41;97975.38;8410989;28;20261;-74
2022/11/07 13:32:44;;;;;;;0.10;0.10;;;;;;;15.85;59.93;97973.97;8411031;28;20242;-74
2022/11/07 13:36:48;;;;;;;0.10;0.10;;;;;;;16.02;60.11;97978.91;8410859;28;20226;-71
2022/11/07 13:40:57;;;;;;;0.00;0.00;;;;;;;16.04;59.73;97979.66;8410552;28;20234;-72
2022/11/07 13:45:09;;;;;;;0.10;0.10;;;;;;;16.03;59.66;97978.00;8409954;28;20226;-72
2022/11/07 13:49:15;;;;;;;0.00;0.00;;;;;;;16.10;59.02;97973.19;8411941;28;20243;-72
2022/11/07 13:53:21;;;;;;;0.00;0.00;;;;;;;16.21;58.30;97979.34;8416531;28;20245;-72
2022/11/07 13:57:29;;;;;;;0.00;0.00;;;;;;;16.32;58.32;97973.41;8416024;28;20227;-72
2022/11/07 14:01:41;;;;;;;0.10;0.10;;;;;;;16.71;57.36;97968.16;8416205;28;20330;-71
2022/11/07 14:05:47;;;;;;;0.00;0.00;;;;;;;17.06;56.65;97965.75;8416016;28;20245;-71
2022/11/07 14:09:51;;;;;;;0.00;0.00;;;;;;;16.72;56.39;97970.69;8415785;28;20356;-72
2022/11/07 14:13:55;;;;;;;0.00;0.00;;;;;;;16.47;57.54;97974.16;8415750;28;20284;-73
2022/11/07 14:17:59;;;;;;;0.00;0.00;;;;;;;16.45;57.99;97970.81;8415994;28;20539;-73
2022/11/07 14:22:01;;;;;;;0.00;0.00;;;;;;;16.34;58.16;97960.25;8415607;28;20404;-74
2022/11/07 14:26:15;;;;;;;0.10;0.10;;;;;;;16.17;58.53;97967.44;8415285;28;20222;-71
2022/11/07 14:30:21;;;;;;;0.00;0.00;;;;;;;15.99;59.12;97960.81;8415364;28;20231;-72
2022/11/07 14:34:24;;;;;;;0.00;0.00;;;;;;;16.11;58.54;97962.63;8415725;28;20233;-71
2022/11/07 14:38:26;;;;;;;0.07;0.07;;;;;;;16.07;58.92;97963.78;8415936;28;20222;-72
2022/11/07 14:42:29;;;;;;;0.00;0.00;;;;;;;16.16;58.88;97960.56;8415823;28;20227;-72
2022/11/07 14:46:33;;;;;;;0.00;0.00;;;;;;;16.66;65.54;97970.25;8416004;28;20545;-71
2022/11/07 14:50:36;;;;;;;0.00;0.00;;;;;;;17.00;62.63;97964.41;8415247;28;20277;-72
2022/11/07 14:54:42;;;;;;;0.00;0.00;;;;;;;16.97;58.07;97963.78;8415720;28;20242;-72
2022/11/07 14:58:46;;;;;;;0.00;0.00;;;;;;;16.67;57.15;97962.31;8415877;28;20234;-73
2022/11/07 15:02:51;;;;;;;0.00;0.00;;;;;;;16.52;57.60;97960.75;8413873;28;20235;-73
2022/11/07 15:06:54;;;;;;;0.00;0.00;;;;;;;16.38;57.81;97956.47;8415035;28;20226;-73
2022/11/07 15:11:05;;;;;;;0.00;0.00;;;;;;;16.25;57.99;97955.66;8414884;28;20302;-73
2022/11/07 15:15:19;;;;;;;0.10;0.10;;;;;;;16.19;58.14;97965.56;8415032;28;20250;-73
2022/11/07 15:19:24;;;;;;;0.00;0.00;;;;;;;16.10;58.09;97958.34;8414798;28;20238;-73
2022/11/07 15:23:29;;;;;;;0.00;0.00;;;;;;;15.99;58.40;97964.28;8414649;28;20231;-74
2022/11/07 15:27:35;;;;;;;0.00;0.00;;;;;;;15.85;58.71;97966.16;8414872;28;20237;-73
2022/11/07 15:31:38;;;;;;;0.00;0.00;;;;;;;15.73;59.23;97966.00;8414840;28;20226;-73
2022/11/07 15:35:42;;;;;;;0.00;0.00;;;;;;;15.74;58.88;97965.06;8415158;28;20315;-73
2022/11/07 15:39:47;;;;;;;0.00;0.00;;;;;;;15.59;59.54;97960.81;8414699;28;20238;-73
2022/11/07 15:43:49;;;;;;;0.00;0.00;;;;;;;15.54;60.10;97968.94;8414567;28;20523;-73
2022/11/07 15:47:52;;;;;;;0.00;0.00;;;;;;;15.51;60.19;97973.53;8413439;28;20426;-73
2022/11/07 15:51:57;;;;;;;0.00;0.00;;;;;;;15.44;60.48;97978.31;8413701;28;20230;-73
2022/11/07 15:56:01;;;;;;;0.00;0.00;;;;;;;15.33;60.39;97983.38;8414669;28;20230;-73
2022/11/07 16:00:04;;;;;;;0.00;0.00;;;;;;;15.41;60.62;97978.50;8413427;28;20239;-73
2022/11/07 16:04:08;;;;;;;0.00;0.00;;;;;;;15.32;60.77;97979.91;8414726;28;20237;-73
2022/11/07 16:08:15;;;;;;;0.00;0.00;;;;;;;15.33;60.82;97986.81;8415025;28;20245;-74
2022/11/07 16:12:19;;;;;;;0.00;0.00;;;;;;;15.32;60.55;97986.91;8414351;28;20401;-73
2022/11/07 16:16:23;;;;;;;0.00;0.00;;;;;;;15.30;60.64;97989.59;8414858;28;20526;-73
2022/11/07 16:20:25;;;;;;;0.07;0.07;;;;;;;15.32;61.06;97981.69;8414545;28;20241;-73
2022/11/07 16:24:30;;;;;;;0.03;0.03;;;;;;;15.28;61.36;97986.25;8414417;28;20235;-73
2022/11/07 16:28:35;;;;;;;0.00;0.00;;;;;;;15.25;61.36;97997.72;8414330;28;20238;-73
2022/11/07 16:32:37;;;;;;;0.00;0.00;;;;;;;15.10;61.92;97988.25;8414376;28;20464;-73
2022/11/07 16:36:40;;;;;;;0.00;0.00;;;;;;;15.19;61.62;97987.69;8414147;28;20234;-73
2022/11/07 16:40:45;;;;;;;0.00;0.00;;;;;;;15.15;61.79;97987.97;8414009;28;20284;-73
2022/11/07 16:44:48;;;;;;;0.00;0.00;;;;;;;15.14;61.80;97992.34;8414059;28;20237;-73
2022/11/07 16:48:53;;;;;;;0.10;0.10;;;;;;;15.20;61.46;97994.56;8413596;28;20280;-73
2022/11/07 16:52:55;;;;;;;0.03;0.03;;;;;;;15.20;61.69;97996.34;8413470;28;20329;-73
2022/11/07 16:57:01;;;;;;;0.10;0.10;;;;;;;15.14;61.60;97997.56;8413680;28;20237;-73
2022/11/07 17:01:05;;;;;;;0.00;0.00;;;;;;;15.00;61.66;97993.22;8413418;28;20422;-73
2022/11/07 17:05:08;;;;;;;0.00;0.00;;;;;;;14.96;61.85;97990.88;8413224;28;20530;-72
2022/11/07 17:09:11;;;;;;;0.10;0.10;;;;;;;14.89;62.08;97994.78;8413634;28;20480;-73
2022/11/07 17:13:16;;;;;;;0.00;0.00;;;;;;;14.81;62.58;97985.69;8413156;28;20273;-74
2022/11/07 17:17:20;;;;;;;0.10;0.10;;;;;;;14.87;62.14;97989.69;8413210;28;20272;-74
2022/11/07 17:21:25;;;;;;;0.00;0.00;;;;;;;14.78;62.34;97991.06;8413494;28;20433;-73
2022/11/07 17:25:28;;;;;;;0.00;0.00;;;;;;;14.84;62.00;98000.28;8417227;28;20245;-73
2022/11/07 17:29:32;;;;;;;0.00;0.00;;;;;;;14.76;61.98;97994.72;8419882;28;20239;-73
2022/11/07 17:33:34;;;;;;;0.00;0.00;;;;;;;14.76;61.81;97999.94;8419857;28;20237;-73
2022/11/07 17:37:38;;;;;;;0.00;0.00;;;;;;;14.76;61.47;97992.94;8420002;28;20231;-74
2022/11/07 17:41:41;;;;;;;0.00;0.00;;;;;;;14.75;61.45;98000.84;8419606;28;20239;-73
2022/11/07 17:45:45;;;;;;;0.00;0.00;;;;;;;14.50;61.85;97991.03;8419444;28;20231;-73
2022/11/07 17:49:47;;;;;;;0.00;0.00;;;;;;;14.69;60.51;97994.25;8419476;28;20459;-73
2022/11/07 17:53:50;;;;;;;0.10;0.10;;;;;;;14.72;60.96;97988.03;8419231;28;20238;-72
2022/11/07 17:57:53;;;;;;;0.00;0.00;;;;;;;14.72;60.46;97986.25;8418711;28;20237;-73
2022/11/07 18:01:57;;;;;;;0.00;0.00;;;;;;;14.66;61.03;97989.22;8418776;28;20459;-73
2022/11/07 18:06:00;;;;;;;0.10;0.10;;;;;;;14.67;60.58;97988.28;8418431;28;20246;-76
2022/11/07 18:10:06;;;;;;;0.00;0.00;;;;;;;14.70;60.38;97992.47;8418482;28;20239;-75
2022/11/07 18:14:10;;;;;;;0.00;0.00;;;;;;;14.72;60.22;97994.06;8418730;28;20238;-74
2022/11/07 18:18:14;;;;;;;0.10;0.10;;;;;;;14.66;60.57;97984.84;8418470;28;20249;-74
2022/11/07 18:22:18;;;;;;;0.00;0.00;;;;;;;14.52;60.49;97971.78;8418756;28;20239;-74
2022/11/07 18:26:24;;;;;;;0.00;0.00;;;;;;;14.48;60.37;97973.72;8418288;28;20231;-73
2022/11/07 18:30:26;;;;;;;0.10;0.10;;;;;;;14.55;60.26;97974.19;8417201;28;20561;-74
2022/11/07 18:34:31;;;;;;;0.00;0.00;;;;;;;14.53;60.51;97983.88;8417729;28;20525;-74
2022/11/07 18:38:34;;;;;;;0.10;0.10;;;;;;;14.49;60.14;97977.19;8417432;28;20230;-71
2022/11/07 18:42:37;;;;;;;0.10;0.10;;;;;;;14.59;60.54;97977.50;8417360;28;20533;-73
2022/11/07 18:46:39;;;;;;;0.00;0.00;;;;;;;14.47;60.48;97979.03;8417550;28;20235;-73
2022/11/07 18:50:44;;;;;;;0.10;0.10;;;;;;;14.54;60.30;97987.31;8417199;28;20418;-74
2022/11/07 18:54:46;;;;;;;0.07;0.07;;;;;;;14.60;59.76;97981.75;8417542;28;20266;-73
2022/11/07 18:58:49;;;;;;;0.10;0.10;;;;;;;14.57;59.76;97985.41;8417199;28;20238;-74
2022/11/07 19:02:53;;;;;;;0.00;0.00;;;;;;;14.55;60.03;97987.22;8416568;28;20230;-73
2022/11/07 19:06:57;;;;;;;0.10;0.10;;;;;;;14.57;60.17;97985.41;8416796;28;20588;-74
2022/11/07 19:11:01;;;;;;;0.00;0.00;;;;;;;14.53;60.18;97986.50;8416414;28;20237;-74
2022/11/07 19:15:05;;;;;;;0.00;0.00;;;;;;;14.58;60.19;97987.09;8416505;28;20235;-75
2022/11/07 19:19:07;;;;;;;0.00;0.00;;;;;;;14.47;60.50;97987.69;8416160;28;20241;-74
2022/11/07 19:23:12;;;;;;;0.03;0.03;;;;;;;14.43;60.62;97990.56;8416334;28;20234;-74